createdAt,value
2023-05-14T00:00:16.403Z,10.40
2023-05-14T00:02:16.809Z,10.90
2023-05-14T00:04:17.134Z,11.00
2023-05-14T00:06:17.565Z,9.80
2023-05-14T00:08:17.942Z,10.70
2023-05-14T00:10:18.285Z,10.50
2023-05-14T00:12:18.618Z,11.00
2023-05-14T00:14:18.902Z,11.50
2023-05-14T00:16:19.296Z,13.60
2023-05-14T00:18:19.670Z,11.60
2023-05-14T00:20:19.964Z,10.00
2023-05-14T00:22:20.362Z,11.00
2023-05-14T00:24:20.771Z,10.60
2023-05-14T00:26:21.094Z,10.10
2023-05-14T00:28:21.353Z,9.70
2023-05-14T00:30:21.872Z,9.60
2023-05-14T00:32:22.374Z,9.10
2023-05-14T00:34:22.686Z,9.60
2023-05-14T00:36:22.994Z,10.00
2023-05-14T00:38:23.377Z,9.40
2023-05-14T00:40:24.000Z,9.80
2023-05-14T00:42:24.449Z,9.70
2023-05-14T00:44:24.773Z,9.70
2023-05-14T00:46:25.083Z,8.50
2023-05-14T00:48:25.379Z,10.50
2023-05-14T00:50:25.904Z,9.30
2023-05-14T00:52:26.465Z,9.70
2023-05-14T00:54:26.710Z,9.10
2023-05-14T00:56:27.007Z,10.90
2023-05-14T00:58:27.364Z,9.00
2023-05-14T01:00:27.647Z,11.10
2023-05-14T01:02:32.927Z,9.90
2023-05-14T01:04:33.288Z,9.10
2023-05-14T01:06:33.639Z,9.80
2023-05-14T01:08:33.946Z,9.30
2023-05-14T01:10:34.300Z,9.40
2023-05-14T01:12:34.673Z,8.80
2023-05-14T01:14:35.706Z,8.30
2023-05-14T01:16:36.181Z,10.30
2023-05-14T01:18:36.542Z,9.30
2023-05-14T01:20:36.908Z,8.90
2023-05-14T01:22:37.225Z,9.60
2023-05-14T01:24:37.519Z,9.50
2023-05-14T01:26:38.268Z,8.90
2023-05-14T01:28:38.600Z,8.20
2023-05-14T01:30:38.932Z,8.40
2023-05-14T01:32:39.244Z,8.20
2023-05-14T01:34:39.556Z,9.60
2023-05-14T01:36:39.883Z,11.10
2023-05-14T01:38:40.205Z,9.90
2023-05-14T01:40:40.504Z,9.30
2023-05-14T01:42:40.852Z,9.10
2023-05-14T01:44:41.158Z,10.40
2023-05-14T01:46:41.607Z,9.60
2023-05-14T01:48:41.880Z,10.20
2023-05-14T01:50:42.252Z,9.60
2023-05-14T01:52:42.553Z,9.20
2023-05-14T01:54:42.940Z,9.60
2023-05-14T01:56:43.274Z,11.10
2023-05-14T01:58:43.622Z,10.00
2023-05-14T02:00:43.934Z,9.90
2023-05-14T02:02:44.402Z,9.50
2023-05-14T02:04:44.680Z,9.80
2023-05-14T02:06:45.110Z,9.50
2023-05-14T02:08:45.424Z,9.80
2023-05-14T02:10:45.830Z,9.60
2023-05-14T02:12:46.130Z,10.00
2023-05-14T02:14:46.483Z,9.60
2023-05-14T02:16:46.824Z,9.70
2023-05-14T02:18:47.136Z,11.10
2023-05-14T02:20:47.469Z,9.20
2023-05-14T02:22:47.778Z,9.80
2023-05-14T02:24:48.049Z,10.50
2023-05-14T02:26:48.440Z,12.00
2023-05-14T02:28:49.738Z,9.60
2023-05-14T02:30:50.183Z,10.20
2023-05-14T02:32:50.546Z,9.40
2023-05-14T02:34:50.898Z,10.60
2023-05-14T02:36:51.248Z,10.10
2023-05-14T02:38:51.526Z,10.20
2023-05-14T02:40:51.798Z,11.30
2023-05-14T02:42:52.154Z,9.70
2023-05-14T02:44:52.418Z,11.20
2023-05-14T02:46:52.859Z,10.60
2023-05-14T02:48:53.175Z,11.20
2023-05-14T02:50:53.464Z,10.60
2023-05-14T02:52:53.822Z,10.20
2023-05-14T02:54:54.151Z,9.70
2023-05-14T02:56:54.495Z,9.90
2023-05-14T02:58:54.830Z,10.30
2023-05-14T03:00:55.718Z,9.10
2023-05-14T03:02:56.585Z,12.60
2023-05-14T03:04:57.476Z,10.80
2023-05-14T03:06:57.869Z,10.60
2023-05-14T03:08:58.175Z,9.50
2023-05-14T03:10:58.459Z,10.70
2023-05-14T03:12:58.789Z,10.30
2023-05-14T03:14:59.111Z,10.40
2023-05-14T03:16:59.474Z,10.20
2023-05-14T03:18:59.902Z,9.50
2023-05-14T03:21:00.225Z,10.80
2023-05-14T03:23:00.515Z,10.90
2023-05-14T03:25:00.844Z,11.30
2023-05-14T03:27:01.273Z,10.40
2023-05-14T03:29:01.540Z,10.40
2023-05-14T03:31:01.950Z,12.00
2023-05-14T03:33:02.342Z,10.80
2023-05-14T03:35:02.727Z,11.40
2023-05-14T03:37:03.088Z,10.20
2023-05-14T03:39:03.537Z,11.60
2023-05-14T03:41:03.828Z,11.70
2023-05-14T03:43:04.146Z,11.50
2023-05-14T03:45:04.462Z,11.80
2023-05-14T03:47:04.802Z,12.20
2023-05-14T03:49:05.263Z,13.60
2023-05-14T03:51:05.559Z,14.30
2023-05-14T03:53:05.852Z,12.70
2023-05-14T03:55:06.211Z,12.90
2023-05-14T03:57:06.579Z,11.60
2023-05-14T03:59:06.929Z,13.80
2023-05-14T04:01:07.253Z,14.80
2023-05-14T04:03:08.409Z,15.40
2023-05-14T04:05:08.746Z,14.80
2023-05-14T04:07:09.080Z,16.10
2023-05-14T04:09:09.365Z,13.30
2023-05-14T04:11:09.675Z,15.50
2023-05-14T04:13:10.022Z,16.30
2023-05-14T04:15:10.456Z,14.60
2023-05-14T04:17:10.768Z,15.60
2023-05-14T04:19:11.278Z,16.10
2023-05-14T04:21:11.602Z,16.90
2023-05-14T04:23:12.242Z,18.60
2023-05-14T04:25:12.529Z,15.80
2023-05-14T04:27:12.953Z,17.50
2023-05-14T04:29:13.327Z,16.50
2023-05-14T04:31:13.658Z,15.70
2023-05-14T04:33:13.969Z,17.10
2023-05-14T04:35:14.286Z,15.30
2023-05-14T04:37:14.589Z,15.90
2023-05-14T04:39:14.898Z,15.10
2023-05-14T04:41:15.212Z,16.80
2023-05-14T04:43:15.655Z,13.60
2023-05-14T04:45:16.020Z,15.20
2023-05-14T04:47:16.393Z,15.70
2023-05-14T04:49:16.679Z,15.40
2023-05-14T04:51:17.011Z,14.80
2023-05-14T04:53:17.329Z,15.00
2023-05-14T04:55:17.647Z,14.20
2023-05-14T04:57:17.973Z,14.00
2023-05-14T04:59:18.298Z,14.90
2023-05-14T05:01:18.648Z,13.40
2023-05-14T05:03:19.045Z,13.70
2023-05-14T05:05:19.365Z,13.50
2023-05-14T05:07:19.691Z,13.80
2023-05-14T05:09:19.983Z,13.40
2023-05-14T05:11:20.319Z,14.00
2023-05-14T05:13:20.600Z,15.10
2023-05-14T05:15:20.976Z,12.90
2023-05-14T05:17:21.545Z,12.50
2023-05-14T05:19:29.102Z,12.60
2023-05-14T05:21:27.149Z,14.50
2023-05-14T05:23:27.430Z,12.20
2023-05-14T05:25:27.724Z,12.90
2023-05-14T05:27:28.013Z,13.00
2023-05-14T05:29:28.321Z,12.10
2023-05-14T05:31:28.676Z,14.00
2023-05-14T05:33:28.989Z,11.90
2023-05-14T05:35:29.289Z,13.00
2023-05-14T05:37:29.611Z,14.70
2023-05-14T05:39:30.005Z,16.20
2023-05-14T05:41:30.281Z,12.60
2023-05-14T05:43:30.600Z,14.00
2023-05-14T05:45:30.936Z,13.20
2023-05-14T05:47:31.383Z,11.30
2023-05-14T05:49:31.677Z,12.00
2023-05-14T05:51:31.966Z,11.90
2023-05-14T05:53:32.771Z,12.30
2023-05-14T05:55:33.784Z,12.60
2023-05-14T05:57:34.151Z,12.00
2023-05-14T05:59:34.407Z,12.30
2023-05-14T06:01:34.723Z,13.20
2023-05-14T06:03:35.021Z,12.10
2023-05-14T06:05:35.334Z,12.70
2023-05-14T06:07:35.672Z,11.80
2023-05-14T06:09:35.965Z,11.90
2023-05-14T06:11:36.256Z,11.60
2023-05-14T06:13:36.573Z,12.80
2023-05-14T06:15:36.904Z,11.20
2023-05-14T06:17:37.304Z,12.20
2023-05-14T06:19:37.566Z,11.10
2023-05-14T06:21:37.904Z,11.90
2023-05-14T06:23:38.186Z,11.40
2023-05-14T06:25:38.497Z,11.50
2023-05-14T06:27:38.828Z,12.00
2023-05-14T06:29:39.112Z,11.10
2023-05-14T06:31:39.439Z,12.40
2023-05-14T06:33:39.764Z,12.90
2023-05-14T06:35:40.064Z,11.40
2023-05-14T06:37:40.425Z,12.40
2023-05-14T06:39:40.693Z,12.30
2023-05-14T06:41:40.986Z,11.70
2023-05-14T06:43:41.278Z,11.50
2023-05-14T06:45:41.595Z,14.10
2023-05-14T06:47:41.898Z,12.10
2023-05-14T06:49:42.213Z,11.50
2023-05-14T06:51:42.524Z,12.00
2023-05-14T06:53:42.786Z,11.90
2023-05-14T06:55:43.101Z,11.30
2023-05-14T06:57:43.386Z,10.70
2023-05-14T06:59:43.747Z,10.80
2023-05-14T07:01:44.026Z,11.10
2023-05-14T07:03:44.361Z,11.50
2023-05-14T07:05:44.612Z,11.30
2023-05-14T07:07:44.902Z,11.70
2023-05-14T07:09:45.261Z,9.90
2023-05-14T07:11:45.505Z,9.80
2023-05-14T07:13:45.787Z,11.00
2023-05-14T07:15:46.156Z,10.80
2023-05-14T07:17:46.444Z,9.70
2023-05-14T07:19:46.809Z,14.00
2023-05-14T07:21:47.051Z,10.70
2023-05-14T07:23:47.387Z,10.70
2023-05-14T07:25:47.669Z,9.50
2023-05-14T07:27:47.940Z,9.90
2023-05-14T07:29:48.285Z,10.80
2023-05-14T07:31:48.711Z,8.70
2023-05-14T07:33:49.083Z,10.60
2023-05-14T07:35:49.407Z,9.40
2023-05-14T07:37:49.752Z,10.00
2023-05-14T07:39:50.056Z,10.00
2023-05-14T07:41:55.275Z,10.60
2023-05-14T07:43:55.585Z,8.40
2023-05-14T07:45:55.879Z,9.20
2023-05-14T07:47:56.255Z,9.90
2023-05-14T07:49:56.594Z,10.70
2023-05-14T07:51:56.873Z,10.80
2023-05-14T07:53:57.158Z,8.90
2023-05-14T07:55:57.506Z,9.80
2023-05-14T07:57:57.798Z,9.60
2023-05-14T07:59:58.099Z,10.20
2023-05-14T08:01:58.407Z,9.90
2023-05-14T08:03:58.803Z,11.40
2023-05-14T08:05:59.103Z,9.70
2023-05-14T08:07:59.373Z,9.50
2023-05-14T08:09:59.698Z,10.40
2023-05-14T08:12:00.039Z,9.40
2023-05-14T08:14:00.500Z,9.70
2023-05-14T08:16:00.866Z,8.30
2023-05-14T08:18:01.273Z,7.90
2023-05-14T08:20:01.617Z,8.10
2023-05-14T08:22:01.966Z,9.80
2023-05-14T08:24:02.296Z,8.90
2023-05-14T08:26:02.544Z,9.50
2023-05-14T08:28:02.887Z,8.70
2023-05-14T08:30:03.227Z,8.80
2023-05-14T08:32:08.742Z,8.30
2023-05-14T08:34:08.857Z,9.20
2023-05-14T08:36:09.200Z,8.30
2023-05-14T08:38:09.644Z,8.90
2023-05-14T08:40:10.010Z,9.00
2023-05-14T08:42:10.333Z,9.20
2023-05-14T08:44:10.592Z,9.00
2023-05-14T08:46:10.881Z,8.50
2023-05-14T08:48:11.361Z,8.50
2023-05-14T08:50:11.651Z,8.80
2023-05-14T08:52:11.984Z,8.50
2023-05-14T08:54:12.223Z,8.90
2023-05-14T08:56:12.589Z,8.60
2023-05-14T08:58:12.843Z,8.90
2023-05-14T09:00:13.273Z,9.20
2023-05-14T09:02:13.702Z,8.30
2023-05-14T09:04:14.120Z,7.30
2023-05-14T09:06:14.468Z,9.00
2023-05-14T09:08:14.879Z,8.40
2023-05-14T09:10:15.886Z,8.60
2023-05-14T09:12:16.157Z,8.30
2023-05-14T09:14:16.477Z,7.70
2023-05-14T09:16:16.882Z,7.00
2023-05-14T09:18:17.237Z,7.70
2023-05-14T09:20:17.528Z,7.70
2023-05-14T09:22:17.789Z,7.70
2023-05-14T09:24:18.120Z,7.80
2023-05-14T09:26:18.420Z,8.70
2023-05-14T09:28:18.755Z,7.70
2023-05-14T09:30:19.083Z,7.60
2023-05-14T09:32:19.373Z,6.60
2023-05-14T09:34:24.552Z,6.90
2023-05-14T09:36:24.900Z,7.20
2023-05-14T09:38:25.176Z,8.50
2023-05-14T09:40:25.656Z,7.70
2023-05-14T09:42:26.098Z,7.20
2023-05-14T09:44:26.467Z,7.40
2023-05-14T09:46:26.784Z,7.50
2023-05-14T09:48:27.086Z,6.80
2023-05-14T09:50:27.554Z,7.90
2023-05-14T09:52:27.833Z,7.30
2023-05-14T09:54:28.100Z,6.40
2023-05-14T09:56:28.422Z,7.00
2023-05-14T09:58:28.726Z,8.30
2023-05-14T10:00:28.975Z,7.90
2023-05-14T10:02:29.347Z,6.70
2023-05-14T10:04:29.713Z,6.40
2023-05-14T10:06:30.105Z,6.80
2023-05-14T10:08:30.407Z,6.80
2023-05-14T10:10:30.688Z,6.20
2023-05-14T10:12:31.007Z,6.20
2023-05-14T10:14:31.305Z,6.50
2023-05-14T10:16:31.632Z,7.90
2023-05-14T10:18:31.928Z,8.50
2023-05-14T10:20:32.324Z,8.70
2023-05-14T10:22:32.590Z,7.30
2023-05-14T10:24:32.993Z,8.50
2023-05-14T10:26:33.286Z,7.90
2023-05-14T10:28:33.661Z,6.20
2023-05-14T10:30:33.977Z,6.80
2023-05-14T10:32:34.396Z,7.20
2023-05-14T10:34:34.724Z,6.20
2023-05-14T10:36:35.021Z,6.80
2023-05-14T10:38:35.326Z,7.60
2023-05-14T10:40:35.683Z,6.50
2023-05-14T10:42:35.988Z,6.90
2023-05-14T10:44:36.330Z,6.60
2023-05-14T10:46:36.665Z,6.10
2023-05-14T10:48:36.941Z,6.00
2023-05-14T10:50:37.266Z,6.10
2023-05-14T10:52:37.662Z,5.90
2023-05-14T10:54:37.985Z,6.20
2023-05-14T10:56:38.258Z,6.90
2023-05-14T10:58:38.578Z,6.80
2023-05-14T11:00:38.923Z,6.60
2023-05-14T11:02:39.302Z,6.20
2023-05-14T11:04:39.629Z,6.80
2023-05-14T11:06:40.062Z,6.30
2023-05-14T11:08:40.383Z,6.30
2023-05-14T11:10:40.801Z,6.40
2023-05-14T11:12:41.619Z,6.20
2023-05-14T11:14:46.389Z,7.40
2023-05-14T11:16:46.772Z,7.10
2023-05-14T11:18:47.145Z,6.50
2023-05-14T11:20:47.454Z,6.50
2023-05-14T11:22:47.759Z,7.60
2023-05-14T11:24:48.192Z,7.50
2023-05-14T11:27:31.377Z,7.40
2023-05-14T11:29:36.466Z,7.20
2023-05-14T11:31:36.918Z,8.70
2023-05-14T11:33:37.321Z,7.50
2023-05-14T11:35:37.677Z,7.20
2023-05-14T11:37:37.988Z,6.70
2023-05-14T11:39:38.355Z,6.40
2023-05-14T11:41:38.637Z,6.20
2023-05-14T11:43:38.972Z,6.40
2023-05-14T11:45:39.360Z,6.50
2023-05-14T11:47:44.594Z,6.30
2023-05-14T11:49:44.845Z,6.80
2023-05-14T11:51:45.158Z,6.10
2023-05-14T11:53:45.415Z,6.20
2023-05-14T11:55:45.861Z,7.50
2023-05-14T11:57:46.100Z,7.30
2023-05-14T11:59:46.381Z,6.40
2023-05-14T12:01:48.018Z,6.40
2023-05-14T12:03:49.432Z,7.50
2023-05-14T12:05:49.808Z,6.10
2023-05-14T12:07:50.081Z,6.80
2023-05-14T12:09:50.443Z,7.30
2023-05-14T12:11:50.682Z,6.30
2023-05-14T12:13:50.960Z,6.60
2023-05-14T12:15:51.285Z,6.50
2023-05-14T12:17:51.989Z,7.90
2023-05-14T12:19:52.536Z,8.70
2023-05-14T12:21:52.821Z,6.50
2023-05-14T12:23:53.074Z,7.10
2023-05-14T12:25:53.507Z,8.20
2023-05-14T12:27:53.796Z,7.60
2023-05-14T12:29:54.087Z,5.90
2023-05-14T12:31:54.456Z,6.80
2023-05-14T12:33:54.890Z,7.30
2023-05-14T12:35:55.155Z,6.10
2023-05-14T12:37:55.506Z,6.70
2023-05-14T12:39:55.748Z,6.50
2023-05-14T12:41:56.146Z,6.70
2023-05-14T12:43:56.464Z,7.00
2023-05-14T12:45:56.752Z,6.90
2023-05-14T12:47:57.098Z,6.20
2023-05-14T12:49:57.382Z,6.20
2023-05-14T12:52:17.078Z,7.60
2023-05-14T12:54:02.888Z,5.90
2023-05-14T12:56:03.224Z,6.30
2023-05-14T12:58:03.617Z,5.90
2023-05-14T13:00:03.858Z,5.90
2023-05-14T13:02:04.184Z,6.20
2023-05-14T13:04:04.527Z,5.60
2023-05-14T13:06:04.821Z,6.40
2023-05-14T13:08:05.174Z,5.90
2023-05-14T13:10:05.477Z,6.20
2023-05-14T13:12:05.762Z,6.10
2023-05-14T13:14:06.064Z,5.50
2023-05-14T13:16:06.445Z,7.90
2023-05-14T13:18:06.779Z,5.50
2023-05-14T13:20:07.103Z,6.50
2023-05-14T13:22:07.529Z,5.70
2023-05-14T13:24:08.342Z,6.40
2023-05-14T13:26:08.683Z,6.00
2023-05-14T13:28:08.971Z,6.30
2023-05-14T13:30:09.324Z,6.50
2023-05-14T13:32:09.659Z,6.70
2023-05-14T13:34:09.954Z,6.20
2023-05-14T13:36:10.261Z,7.40
2023-05-14T13:38:10.652Z,6.50
2023-05-14T13:40:10.943Z,6.20
2023-05-14T13:42:11.348Z,7.30
2023-05-14T13:44:11.634Z,5.90
2023-05-14T13:46:12.030Z,7.20
2023-05-14T13:48:12.418Z,6.50
2023-05-14T13:50:12.696Z,7.00
2023-05-14T13:52:13.007Z,6.30
2023-05-14T13:54:13.458Z,6.90
2023-05-14T13:56:13.739Z,7.00
2023-05-14T13:58:14.135Z,6.60
2023-05-14T14:00:14.503Z,6.80
2023-05-14T14:02:14.788Z,6.30
2023-05-14T14:04:15.041Z,6.70
2023-05-14T14:06:15.398Z,6.50
2023-05-14T14:08:23.523Z,6.40
2023-05-14T14:10:20.882Z,7.20
2023-05-14T14:12:21.236Z,7.20
2023-05-14T14:14:21.523Z,8.60
2023-05-14T14:16:21.963Z,6.90
2023-05-14T14:18:22.357Z,6.30
2023-05-14T14:20:22.669Z,6.60
2023-05-14T14:22:26.169Z,6.40
2023-05-14T14:24:28.192Z,7.30
2023-05-14T14:26:28.537Z,6.30
2023-05-14T14:28:28.972Z,7.60
2023-05-14T14:30:29.317Z,6.60
2023-05-14T14:32:29.686Z,6.30
2023-05-14T14:34:29.959Z,5.90
2023-05-14T14:36:30.322Z,6.30
2023-05-14T14:38:30.694Z,6.90
2023-05-14T14:40:31.089Z,7.70
2023-05-14T14:42:31.436Z,7.10
2023-05-14T14:44:31.778Z,6.40
2023-05-14T14:46:32.198Z,6.80
2023-05-14T14:48:32.634Z,5.80
2023-05-14T14:50:32.908Z,6.70
2023-05-14T14:52:33.270Z,6.00
2023-05-14T14:54:33.578Z,5.60
2023-05-14T14:56:34.012Z,6.60
2023-05-14T14:58:34.280Z,5.90
2023-05-14T15:00:34.642Z,6.20
2023-05-14T15:02:35.116Z,6.30
2023-05-14T15:04:35.469Z,6.60
2023-05-14T15:06:35.890Z,5.80
2023-05-14T15:08:36.158Z,6.30
2023-05-14T15:10:36.647Z,6.00
2023-05-14T15:12:36.943Z,6.10
2023-05-14T15:14:37.276Z,5.50
2023-05-14T15:16:37.687Z,6.10
2023-05-14T15:18:38.039Z,5.50
2023-05-14T15:20:38.378Z,6.00
2023-05-14T15:22:38.662Z,6.40
2023-05-14T15:24:38.972Z,5.60
2023-05-14T15:26:39.256Z,6.30
2023-05-14T15:28:39.564Z,5.50
2023-05-14T15:30:39.914Z,5.90
2023-05-14T15:32:40.542Z,5.50
2023-05-14T15:34:40.885Z,4.80
2023-05-14T15:36:41.179Z,6.50
2023-05-14T15:38:42.296Z,5.10
2023-05-14T15:40:42.984Z,4.90
2023-05-14T15:42:43.890Z,4.90
2023-05-14T15:44:44.579Z,4.50
2023-05-14T15:46:45.102Z,4.90
2023-05-14T15:49:32.024Z,5.30
2023-05-14T15:51:32.461Z,5.90
2023-05-14T15:53:34.544Z,5.90
2023-05-14T15:55:35.411Z,6.70
2023-05-14T15:57:35.820Z,7.20
2023-05-14T15:59:36.215Z,5.90
2023-05-14T16:01:36.834Z,6.20
2023-05-14T16:05:51.072Z,5.50
2023-05-14T16:07:53.992Z,5.60
2023-05-14T16:09:55.893Z,5.60
2023-05-14T16:12:49.259Z,6.60
2023-05-14T16:14:54.510Z,6.00
2023-05-14T16:18:06.517Z,5.80
2023-05-14T16:20:56.266Z,5.70
2023-05-14T16:23:50.590Z,6.50
2023-05-14T16:26:55.209Z,5.30
2023-05-14T16:28:55.778Z,6.30
2023-05-14T16:30:56.504Z,5.90
2023-05-14T16:32:57.676Z,5.80
2023-05-14T16:34:59.304Z,5.80
2023-05-14T16:37:01.424Z,5.90
2023-05-14T16:41:04.958Z,5.70
2023-05-14T16:43:05.233Z,5.90
2023-05-14T16:45:05.506Z,6.00
2023-05-14T16:47:05.883Z,5.20
2023-05-14T16:49:06.199Z,6.10
2023-05-14T16:51:06.435Z,4.90
2023-05-14T16:53:06.760Z,5.10
2023-05-14T16:55:07.047Z,6.50
2023-05-14T16:57:07.337Z,6.30
2023-05-14T16:59:07.598Z,5.00
2023-05-14T17:01:09.904Z,7.40
2023-05-14T17:03:13.624Z,5.90
2023-05-14T17:05:13.969Z,6.00
2023-05-14T17:07:14.217Z,5.60
2023-05-14T17:09:14.571Z,5.80
2023-05-14T17:11:14.909Z,6.30
2023-05-14T17:13:15.246Z,5.90
2023-05-14T17:15:15.672Z,6.10
2023-05-14T17:17:16.179Z,5.50
2023-05-14T17:19:16.904Z,6.20
2023-05-14T17:21:17.197Z,6.30
2023-05-14T17:23:18.414Z,5.60
2023-05-14T17:25:18.761Z,6.60
2023-05-14T17:27:19.069Z,5.20
2023-05-14T17:29:19.375Z,6.40
2023-05-14T17:31:19.727Z,7.00
2023-05-14T17:33:20.051Z,5.70
2023-05-14T17:35:20.337Z,5.50
2023-05-14T17:37:20.634Z,6.20
2023-05-14T17:39:20.951Z,5.30
2023-05-14T17:41:21.255Z,5.40
2023-05-14T17:43:21.562Z,5.50
2023-05-14T17:45:22.024Z,5.20
2023-05-14T17:47:22.448Z,6.00
2023-05-14T17:49:22.780Z,4.90
2023-05-14T17:51:23.403Z,6.00
2023-05-14T17:53:23.758Z,5.10
2023-05-14T17:55:24.249Z,5.30
2023-05-14T17:57:24.645Z,5.60
2023-05-14T17:59:24.938Z,4.60
2023-05-14T18:01:25.309Z,6.90
2023-05-14T18:03:25.777Z,6.80
2023-05-14T18:05:26.208Z,5.40
2023-05-14T18:07:26.556Z,5.60
2023-05-14T18:09:26.835Z,6.60
2023-05-14T18:11:27.178Z,5.60
2023-05-14T18:13:28.955Z,6.30
2023-05-14T18:15:29.258Z,5.80
2023-05-14T18:17:29.610Z,7.50
2023-05-14T18:19:29.944Z,5.60
2023-05-14T18:21:30.238Z,5.80
2023-05-14T18:23:30.532Z,6.10
2023-05-14T18:25:30.841Z,6.40
2023-05-14T18:28:15.310Z,4.60
2023-05-14T18:30:15.693Z,6.60
2023-05-14T18:32:15.967Z,5.60
2023-05-14T18:34:16.541Z,7.60
2023-05-14T18:36:16.801Z,6.00
2023-05-14T18:38:17.078Z,6.40
2023-05-14T18:40:18.918Z,5.20
2023-05-14T18:42:19.327Z,5.50
2023-05-14T18:44:19.621Z,6.10
2023-05-14T18:46:19.965Z,5.20
2023-05-14T18:48:20.268Z,5.20
2023-05-14T18:50:20.532Z,8.50
2023-05-14T18:52:20.861Z,6.70
2023-05-14T18:54:21.209Z,5.20
2023-05-14T18:56:22.016Z,8.20
2023-05-14T18:58:22.358Z,5.50
2023-05-14T19:00:22.870Z,6.30
2023-05-14T19:02:23.567Z,6.30
2023-05-14T19:04:24.484Z,6.30
2023-05-14T19:06:25.675Z,6.30
2023-05-14T19:08:26.087Z,5.80
2023-05-14T19:10:26.379Z,6.30
2023-05-14T19:12:26.866Z,8.20
2023-05-14T19:14:27.134Z,7.60
2023-05-14T19:16:27.522Z,12.30
2023-05-14T19:18:27.923Z,12.20
2023-05-14T19:20:28.469Z,14.40
2023-05-14T19:22:28.805Z,18.80
2023-05-14T19:24:29.153Z,21.20
2023-05-14T19:26:29.499Z,31.60
2023-05-14T19:28:29.805Z,33.40
2023-05-14T19:30:30.090Z,35.60
2023-05-14T19:32:30.429Z,34.90
2023-05-14T19:34:30.755Z,40.00
2023-05-14T19:36:31.062Z,36.10
2023-05-14T19:38:31.350Z,39.00
2023-05-14T19:40:31.699Z,32.50
2023-05-14T19:42:32.001Z,34.90
2023-05-14T19:44:32.291Z,31.30
2023-05-14T19:46:32.633Z,33.50
2023-05-14T19:48:33.003Z,35.90
2023-05-14T19:50:33.335Z,28.80
2023-05-14T19:52:33.630Z,24.50
2023-05-14T19:54:33.944Z,32.20
2023-05-14T19:56:34.207Z,32.00
2023-05-14T19:58:34.503Z,37.10
2023-05-14T20:00:34.854Z,37.20
2023-05-14T20:02:35.128Z,33.80
2023-05-14T20:04:35.577Z,31.70
2023-05-14T20:06:35.926Z,34.70
2023-05-14T20:08:36.244Z,35.10
2023-05-14T20:10:36.520Z,38.60
2023-05-14T20:12:36.996Z,28.20
2023-05-14T20:14:37.406Z,30.00
2023-05-14T20:16:38.361Z,30.40
2023-05-14T20:18:38.699Z,37.00
2023-05-14T20:20:39.026Z,42.70
2023-05-14T20:22:39.400Z,48.30
2023-05-14T20:24:39.787Z,44.10
2023-05-14T20:26:40.046Z,52.30
2023-05-14T20:28:40.700Z,30.30
2023-05-14T20:30:41.005Z,27.90
2023-05-14T20:32:41.500Z,25.70
2023-05-14T20:34:41.785Z,23.00
2023-05-14T20:36:42.241Z,26.40
2023-05-14T20:38:42.514Z,30.70
2023-05-14T20:40:42.865Z,28.60
2023-05-14T20:42:43.163Z,32.10
2023-05-14T20:44:43.510Z,28.50
2023-05-14T20:46:43.877Z,26.70
2023-05-14T20:48:44.253Z,26.50
2023-05-14T20:50:44.695Z,23.80
2023-05-14T20:52:44.961Z,31.40
2023-05-14T20:54:45.295Z,27.30
2023-05-14T20:56:45.594Z,28.00
2023-05-14T20:58:45.913Z,25.60
2023-05-14T21:00:46.217Z,21.30
2023-05-14T21:02:46.613Z,19.10
2023-05-14T21:04:46.962Z,20.80
2023-05-14T21:06:47.305Z,19.30
2023-05-14T21:08:47.569Z,29.80
2023-05-14T21:10:47.899Z,27.50
2023-05-14T21:12:48.199Z,26.10
2023-05-14T21:14:48.463Z,22.70
2023-05-14T21:16:48.876Z,25.70
2023-05-14T21:18:49.196Z,23.40
2023-05-14T21:20:49.502Z,18.30
2023-05-14T21:22:49.820Z,27.40
2023-05-14T21:24:50.134Z,19.00
2023-05-14T21:26:52.907Z,16.60
2023-05-14T21:28:53.801Z,16.30
2023-05-14T21:30:54.100Z,20.00
2023-05-14T21:32:54.506Z,19.30
2023-05-14T21:34:54.849Z,21.90
2023-05-14T21:36:55.182Z,22.50
2023-05-14T21:38:55.497Z,25.20
2023-05-14T21:40:55.792Z,23.00
2023-05-14T21:42:56.066Z,25.10
2023-05-14T21:44:56.384Z,20.20
2023-05-14T21:46:56.686Z,24.70
2023-05-14T21:48:57.040Z,18.40
2023-05-14T21:50:57.382Z,18.00
2023-05-14T21:52:57.700Z,18.00
2023-05-14T21:54:57.950Z,19.20
2023-05-14T21:56:58.324Z,15.10
2023-05-14T21:58:58.578Z,18.40
2023-05-14T22:00:58.980Z,16.50
2023-05-14T22:02:59.405Z,20.80
2023-05-14T22:04:59.666Z,16.10
2023-05-14T22:06:59.981Z,21.00
2023-05-14T22:09:00.266Z,20.40
2023-05-14T22:11:00.577Z,18.30
2023-05-14T22:13:00.945Z,25.50
2023-05-14T22:15:01.212Z,24.80
2023-05-14T22:17:01.572Z,24.50
2023-05-14T22:19:02.161Z,26.80
2023-05-14T22:21:02.453Z,27.70
2023-05-14T22:23:02.732Z,27.30
2023-05-14T22:25:03.064Z,28.90
2023-05-14T22:27:03.356Z,21.20
2023-05-14T22:29:03.665Z,23.10
2023-05-14T22:31:04.002Z,27.90
2023-05-14T22:33:04.423Z,21.70
2023-05-14T22:35:04.693Z,18.40
2023-05-14T22:37:05.038Z,24.10
2023-05-14T22:39:05.320Z,23.10
2023-05-14T22:41:05.610Z,23.20
2023-05-14T22:43:06.033Z,24.70
2023-05-14T22:45:06.330Z,24.60
2023-05-14T22:47:06.609Z,20.30
2023-05-14T22:49:06.929Z,20.20
2023-05-14T22:51:07.238Z,21.40
2023-05-14T22:53:07.617Z,20.80
2023-05-14T22:55:08.027Z,22.70
2023-05-14T22:57:08.468Z,20.80
2023-05-14T22:59:08.791Z,24.90
2023-05-14T23:01:09.200Z,20.10
2023-05-14T23:03:09.551Z,20.20
2023-05-14T23:05:09.875Z,21.50
2023-05-14T23:07:10.152Z,21.90
2023-05-14T23:09:10.440Z,25.60
2023-05-14T23:11:15.657Z,23.20
2023-05-14T23:13:15.988Z,27.00
2023-05-14T23:15:16.308Z,25.10
2023-05-14T23:17:16.599Z,26.80
2023-05-14T23:19:16.999Z,24.90
2023-05-14T23:21:17.425Z,23.10
2023-05-14T23:23:17.752Z,19.00
2023-05-14T23:25:18.055Z,20.80
2023-05-14T23:27:18.327Z,18.00
2023-05-14T23:29:18.625Z,16.70
2023-05-14T23:31:18.970Z,17.30
2023-05-14T23:33:19.260Z,17.20
2023-05-14T23:35:19.525Z,15.90
2023-05-14T23:37:19.885Z,18.10
2023-05-14T23:39:20.194Z,20.40
2023-05-14T23:41:25.405Z,19.70
2023-05-14T23:43:25.693Z,23.40
2023-05-14T23:45:26.235Z,21.60
2023-05-14T23:47:26.646Z,20.80
2023-05-14T23:49:26.899Z,18.20
2023-05-14T23:51:27.200Z,21.30
2023-05-14T23:53:27.505Z,18.90
2023-05-14T23:55:27.772Z,20.50
2023-05-14T23:57:28.073Z,23.00
2023-05-14T23:59:28.438Z,25.10
